createdAt,value
2023-05-17T00:02:11.626Z,5.68
2023-05-17T00:04:39.110Z,5.50
2023-05-17T00:07:06.632Z,5.82
2023-05-17T00:09:34.065Z,6.18
2023-05-17T00:12:01.659Z,6.03
2023-05-17T00:14:29.081Z,6.60
2023-05-17T00:16:56.586Z,5.95
2023-05-17T00:19:24.148Z,6.55
2023-05-17T00:21:51.738Z,5.70
2023-05-17T00:24:19.162Z,6.60
2023-05-17T00:26:46.659Z,6.90
2023-05-17T00:29:14.058Z,7.32
2023-05-17T00:31:43.309Z,7.78
2023-05-17T00:34:10.891Z,8.18
2023-05-17T00:36:38.338Z,8.73
2023-05-17T00:39:05.778Z,8.85
2023-05-17T00:41:33.212Z,8.23
2023-05-17T00:44:00.743Z,9.35
2023-05-17T00:46:28.268Z,9.25
2023-05-17T00:48:55.910Z,9.02
2023-05-17T00:51:23.587Z,9.68
2023-05-17T00:53:51.136Z,9.77
2023-05-17T00:56:18.656Z,9.55
2023-05-17T00:58:46.146Z,9.90
2023-05-17T01:01:13.703Z,9.65
2023-05-17T01:03:41.364Z,10.13
2023-05-17T01:06:08.914Z,9.68
2023-05-17T01:08:36.378Z,10.13
2023-05-17T01:11:06.929Z,9.85
2023-05-17T01:13:53.432Z,9.73
2023-05-17T01:16:26.267Z,9.90
2023-05-17T01:18:57.934Z,9.57
2023-05-17T01:21:41.135Z,10.13
2023-05-17T01:24:21.438Z,10.07
2023-05-17T01:26:50.307Z,10.48
2023-05-17T01:29:18.795Z,10.30
2023-05-17T01:31:46.416Z,11.13
2023-05-17T01:34:13.835Z,10.63
2023-05-17T01:36:43.190Z,11.27
2023-05-17T01:39:10.712Z,11.80
2023-05-17T01:41:41.384Z,12.60
2023-05-17T01:44:09.031Z,12.00
2023-05-17T01:46:43.541Z,12.73
2023-05-17T01:49:30.752Z,11.43
2023-05-17T01:52:08.776Z,12.10
2023-05-17T01:54:38.840Z,11.40
2023-05-17T01:57:07.812Z,12.40
2023-05-17T01:59:36.287Z,11.63
2023-05-17T02:02:07.412Z,12.25
2023-05-17T02:04:36.884Z,11.75
2023-05-17T02:07:04.510Z,11.20
2023-05-17T02:09:32.085Z,12.45
2023-05-17T02:11:59.833Z,12.68
2023-05-17T02:14:27.344Z,11.68
2023-05-17T02:16:54.789Z,11.55
2023-05-17T02:19:22.435Z,11.93
2023-05-17T02:21:49.869Z,11.80
2023-05-17T02:24:17.460Z,11.73
2023-05-17T02:26:46.466Z,12.43
2023-05-17T02:29:13.960Z,12.82
2023-05-17T02:31:41.468Z,13.77
2023-05-17T02:34:08.842Z,13.05
2023-05-17T02:36:36.281Z,12.95
2023-05-17T02:39:03.731Z,13.02
2023-05-17T02:41:32.548Z,12.27
2023-05-17T02:43:59.977Z,13.35
2023-05-17T02:46:27.564Z,12.93
2023-05-17T02:48:55.031Z,12.07
2023-05-17T02:51:22.654Z,11.90
2023-05-17T02:53:50.175Z,12.00
2023-05-17T02:56:18.020Z,11.93
2023-05-17T02:58:45.922Z,12.00
2023-05-17T03:01:13.488Z,11.43
2023-05-17T03:03:41.091Z,11.02
2023-05-17T03:06:08.920Z,11.80
2023-05-17T03:08:36.494Z,10.95
2023-05-17T03:11:04.750Z,11.43
2023-05-17T03:13:32.782Z,11.20
2023-05-17T03:16:01.151Z,12.52
2023-05-17T03:18:29.059Z,11.95
2023-05-17T03:20:56.665Z,11.95
2023-05-17T03:23:24.189Z,11.85
2023-05-17T03:25:58.483Z,11.43
2023-05-17T03:28:27.520Z,11.40
2023-05-17T03:30:56.239Z,10.45
2023-05-17T03:33:24.903Z,10.80
2023-05-17T03:35:52.480Z,11.60
2023-05-17T03:38:20.305Z,11.00
2023-05-17T03:40:47.929Z,10.13
2023-05-17T03:43:15.384Z,11.75
2023-05-17T03:45:43.071Z,11.85
2023-05-17T03:48:10.632Z,11.25
2023-05-17T03:50:39.138Z,10.77
2023-05-17T03:53:06.954Z,11.13
2023-05-17T03:55:34.473Z,11.82
2023-05-17T03:58:02.150Z,11.45
2023-05-17T04:00:30.600Z,10.60
2023-05-17T04:03:03.242Z,9.88
2023-05-17T04:05:31.186Z,10.55
2023-05-17T04:07:58.777Z,10.68
2023-05-17T04:10:26.304Z,10.48
2023-05-17T04:12:54.055Z,9.45
2023-05-17T04:15:22.094Z,9.93
2023-05-17T04:17:50.320Z,11.25
2023-05-17T04:20:18.041Z,10.63
2023-05-17T04:22:45.674Z,10.38
2023-05-17T04:25:13.284Z,10.48
2023-05-17T04:27:40.955Z,9.70
2023-05-17T04:30:10.004Z,10.30
2023-05-17T04:32:37.706Z,10.50
2023-05-17T04:35:05.633Z,9.90
2023-05-17T04:37:34.225Z,10.55
2023-05-17T04:40:10.875Z,9.98
2023-05-17T04:42:38.332Z,10.85
2023-05-17T04:45:06.442Z,9.48
2023-05-17T04:47:34.333Z,9.50
2023-05-17T04:50:01.851Z,9.60
2023-05-17T04:52:29.424Z,9.77
2023-05-17T04:54:56.925Z,9.80
2023-05-17T04:57:24.697Z,9.43
2023-05-17T04:59:58.720Z,10.07
2023-05-17T05:02:27.095Z,9.88
2023-05-17T05:04:54.810Z,9.85
2023-05-17T05:07:22.557Z,9.75
2023-05-17T05:09:50.048Z,9.35
2023-05-17T05:12:19.102Z,9.15
2023-05-17T05:14:47.783Z,9.68
2023-05-17T05:17:15.627Z,8.85
2023-05-17T05:19:43.241Z,9.73
2023-05-17T05:22:11.406Z,9.10
2023-05-17T05:24:40.718Z,8.88
2023-05-17T05:27:08.150Z,9.00
2023-05-17T05:29:37.016Z,8.93
2023-05-17T05:32:04.616Z,20.95
2023-05-17T05:34:37.065Z,9.75
2023-05-17T05:37:05.112Z,16.55
2023-05-17T05:39:33.153Z,10.02
2023-05-17T05:42:01.480Z,12.02
2023-05-17T05:44:31.099Z,17.83
2023-05-17T05:46:58.961Z,14.43
2023-05-17T05:49:27.234Z,10.30
2023-05-17T05:51:55.433Z,8.75
2023-05-17T05:54:23.314Z,8.15
2023-05-17T05:56:53.646Z,12.43
2023-05-17T05:59:21.578Z,14.85
2023-05-17T06:01:49.008Z,9.63
2023-05-17T06:04:16.508Z,9.43
2023-05-17T06:06:44.171Z,9.27
2023-05-17T06:09:12.414Z,10.43
2023-05-17T06:11:39.971Z,10.80
2023-05-17T06:14:07.875Z,9.70
2023-05-17T06:16:35.461Z,8.65
2023-05-17T06:19:04.305Z,10.10
2023-05-17T06:21:31.787Z,10.52
2023-05-17T06:23:59.542Z,9.05
2023-05-17T06:26:27.593Z,9.30
2023-05-17T06:28:55.021Z,8.02
2023-05-17T06:31:22.460Z,8.57
2023-05-17T06:33:50.180Z,8.63
2023-05-17T06:36:19.794Z,8.30
2023-05-17T06:38:47.213Z,8.52
2023-05-17T06:41:14.659Z,8.30
2023-05-17T06:43:42.241Z,9.13
2023-05-17T06:46:09.729Z,9.20
2023-05-17T06:48:37.238Z,9.02
2023-05-17T06:51:04.967Z,8.43
2023-05-17T06:53:32.421Z,9.02
2023-05-17T06:55:59.953Z,8.38
2023-05-17T06:58:27.358Z,8.82
2023-05-17T07:00:54.798Z,8.10
2023-05-17T07:03:22.524Z,8.23
2023-05-17T07:05:50.088Z,8.30
2023-05-17T07:08:17.674Z,8.23
2023-05-17T07:10:45.195Z,7.90
2023-05-17T07:13:12.726Z,8.38
2023-05-17T07:15:40.221Z,8.55
2023-05-17T07:18:07.794Z,8.40
2023-05-17T07:20:35.304Z,8.30
2023-05-17T07:23:02.767Z,8.25
2023-05-17T07:25:30.426Z,8.05
2023-05-17T07:27:57.950Z,8.57
2023-05-17T07:30:25.328Z,8.80
2023-05-17T07:32:52.822Z,9.50
2023-05-17T07:35:21.817Z,7.78
2023-05-17T07:37:49.555Z,8.65
2023-05-17T07:40:17.013Z,9.25
2023-05-17T07:42:44.694Z,8.35
2023-05-17T07:45:12.241Z,8.40
2023-05-17T07:47:39.844Z,7.95
2023-05-17T07:50:07.630Z,8.98
2023-05-17T07:52:35.164Z,8.18
2023-05-17T07:55:04.002Z,8.38
2023-05-17T07:57:31.488Z,8.55
2023-05-17T07:59:58.914Z,8.02
2023-05-17T08:02:26.408Z,8.45
2023-05-17T08:04:54.203Z,9.35
2023-05-17T08:07:21.723Z,8.55
2023-05-17T08:09:49.119Z,8.65
2023-05-17T08:12:16.596Z,9.30
2023-05-17T08:14:43.996Z,8.05
2023-05-17T08:17:11.496Z,8.30
2023-05-17T08:19:39.182Z,7.97
2023-05-17T08:22:06.795Z,8.52
2023-05-17T08:24:34.247Z,8.18
2023-05-17T08:27:02.236Z,8.05
2023-05-17T08:29:29.645Z,9.10
2023-05-17T08:31:57.254Z,10.15
2023-05-17T08:34:24.765Z,8.90
2023-05-17T08:36:53.602Z,8.07
2023-05-17T08:39:21.243Z,7.30
2023-05-17T08:41:49.423Z,7.22
2023-05-17T08:44:17.356Z,8.02
2023-05-17T08:46:45.210Z,8.07
2023-05-17T08:49:15.301Z,7.50
2023-05-17T08:51:43.002Z,7.25
2023-05-17T08:54:10.413Z,7.63
2023-05-17T08:56:39.985Z,7.38
2023-05-17T08:59:10.526Z,8.02
2023-05-17T09:01:40.025Z,7.78
2023-05-17T09:04:09.916Z,7.78
2023-05-17T09:06:38.202Z,6.70
2023-05-17T09:09:09.191Z,9.40
2023-05-17T09:11:36.784Z,8.70
2023-05-17T09:14:05.958Z,7.38
2023-05-17T09:16:37.281Z,7.63
2023-05-17T09:19:05.915Z,7.30
2023-05-17T09:21:37.050Z,7.22
2023-05-17T09:24:08.266Z,7.32
2023-05-17T09:26:40.506Z,8.30
2023-05-17T09:29:15.185Z,7.75
2023-05-17T09:31:43.714Z,9.13
2023-05-17T09:34:11.389Z,8.68
2023-05-17T09:36:39.676Z,8.05
2023-05-17T09:39:10.793Z,7.93
2023-05-17T09:41:49.939Z,8.63
2023-05-17T09:44:17.675Z,8.73
2023-05-17T09:46:46.021Z,10.00
2023-05-17T09:49:13.976Z,9.98
2023-05-17T09:51:42.798Z,11.20
2023-05-17T09:54:10.697Z,10.13
2023-05-17T09:56:38.397Z,10.10
2023-05-17T09:59:11.628Z,11.20
2023-05-17T10:01:41.315Z,10.55
2023-05-17T10:04:12.205Z,10.80
2023-05-17T10:06:49.630Z,10.73
2023-05-17T10:09:19.619Z,9.70
2023-05-17T10:11:47.911Z,10.35
2023-05-17T10:14:22.940Z,10.02
2023-05-17T10:16:51.863Z,10.60
2023-05-17T10:19:20.982Z,9.77
2023-05-17T10:21:49.243Z,9.52
2023-05-17T10:24:17.132Z,9.60
2023-05-17T10:26:45.161Z,10.43
2023-05-17T10:29:12.783Z,10.52
2023-05-17T10:31:42.098Z,9.50
2023-05-17T10:34:11.761Z,9.40
2023-05-17T10:36:39.911Z,8.13
2023-05-17T10:39:08.097Z,8.20
2023-05-17T10:41:36.286Z,7.43
2023-05-17T10:44:05.014Z,6.32
2023-05-17T10:46:32.618Z,7.30
2023-05-17T10:49:01.581Z,6.45
2023-05-17T10:51:36.485Z,7.25
2023-05-17T10:56:32.157Z,5.72
2023-05-17T10:59:38.557Z,6.00
2023-05-17T11:02:06.278Z,5.82
2023-05-17T11:04:43.628Z,5.65
2023-05-17T11:07:17.321Z,5.80
2023-05-17T11:09:45.787Z,5.68
2023-05-17T11:12:16.490Z,5.38
2023-05-17T11:14:46.707Z,5.50
2023-05-17T11:17:15.062Z,5.88
2023-05-17T11:19:58.064Z,6.32
2023-05-17T11:22:26.729Z,6.13
2023-05-17T11:24:55.164Z,6.20
2023-05-17T11:27:27.481Z,6.30
2023-05-17T11:29:55.719Z,5.28
2023-05-17T11:32:33.027Z,5.65
2023-05-17T11:35:03.380Z,6.10
2023-05-17T11:37:31.451Z,6.20
2023-05-17T11:40:03.948Z,6.25
2023-05-17T11:42:31.609Z,6.00
2023-05-17T11:44:59.196Z,5.63
2023-05-17T11:47:27.802Z,5.13
2023-05-17T11:49:56.723Z,5.38
2023-05-17T11:52:24.238Z,5.40
2023-05-17T11:54:52.265Z,5.13
2023-05-17T11:57:21.547Z,5.43
2023-05-17T11:59:49.203Z,4.80
2023-05-17T12:02:32.437Z,4.90
2023-05-17T12:05:00.292Z,5.38
2023-05-17T12:07:28.664Z,5.05
2023-05-17T12:09:56.278Z,6.20
2023-05-17T12:12:23.709Z,6.20
2023-05-17T12:14:51.380Z,6.72
2023-05-17T12:17:29.137Z,6.10
2023-05-17T12:19:56.975Z,7.15
2023-05-17T12:22:24.472Z,6.70
2023-05-17T12:24:51.951Z,6.60
2023-05-17T12:27:26.788Z,6.03
2023-05-17T12:29:54.346Z,5.53
2023-05-17T12:32:21.974Z,6.65
2023-05-17T12:34:49.631Z,4.28
2023-05-17T12:37:17.225Z,4.40
2023-05-17T12:39:44.858Z,4.85
2023-05-17T12:42:12.494Z,5.32
2023-05-17T12:44:40.104Z,5.18
2023-05-17T12:47:07.695Z,4.30
2023-05-17T12:49:39.140Z,4.32
2023-05-17T12:52:06.936Z,4.65
2023-05-17T12:54:34.603Z,5.13
2023-05-17T12:57:12.908Z,5.50
2023-05-17T12:59:50.331Z,4.50
2023-05-17T13:02:18.034Z,4.72
2023-05-17T13:04:46.556Z,5.93
2023-05-17T13:07:21.780Z,6.55
2023-05-17T13:09:49.504Z,6.32
2023-05-17T13:12:21.164Z,5.30
2023-05-17T13:14:49.511Z,6.25
2023-05-17T13:17:24.751Z,5.40
2023-05-17T13:19:52.412Z,5.88
2023-05-17T13:22:20.180Z,6.07
2023-05-17T13:24:47.689Z,6.60
2023-05-17T13:27:15.141Z,7.30
2023-05-17T13:29:43.603Z,6.45
2023-05-17T13:32:12.426Z,6.72
2023-05-17T13:34:40.590Z,6.05
2023-05-17T13:37:11.511Z,6.20
2023-05-17T13:39:39.866Z,5.45
2023-05-17T13:42:07.463Z,6.00
2023-05-17T13:44:34.979Z,5.63
2023-05-17T13:47:02.589Z,6.13
2023-05-17T13:49:30.118Z,6.32
2023-05-17T13:51:57.733Z,6.47
2023-05-17T13:54:25.263Z,5.63
2023-05-17T13:56:53.747Z,6.57
2023-05-17T13:59:21.242Z,6.13
2023-05-17T14:01:48.704Z,5.82
2023-05-17T14:04:16.450Z,4.45
2023-05-17T14:06:44.619Z,4.38
2023-05-17T14:09:13.621Z,3.85
2023-05-17T14:11:41.093Z,4.10
2023-05-17T14:14:08.593Z,4.43
2023-05-17T14:16:36.192Z,4.57
2023-05-17T14:19:04.975Z,4.82
2023-05-17T14:21:32.843Z,4.47
2023-05-17T14:24:00.340Z,4.57
2023-05-17T14:26:27.966Z,5.03
2023-05-17T14:28:55.724Z,4.80
2023-05-17T14:31:23.174Z,5.22
2023-05-17T14:33:51.166Z,5.03
2023-05-17T14:36:18.746Z,5.20
2023-05-17T14:38:46.207Z,5.65
2023-05-17T14:41:15.108Z,5.50
2023-05-17T14:43:42.519Z,4.95
2023-05-17T14:46:10.013Z,5.28
2023-05-17T14:48:37.559Z,5.90
2023-05-17T14:51:05.203Z,5.88
2023-05-17T14:53:32.950Z,5.78
2023-05-17T14:56:00.438Z,5.88
2023-05-17T14:58:28.564Z,6.32
2023-05-17T15:01:05.035Z,6.82
2023-05-17T15:03:34.686Z,7.13
2023-05-17T15:06:06.257Z,7.82
2023-05-17T15:08:35.240Z,7.53
2023-05-17T15:11:03.028Z,7.78
2023-05-17T15:13:30.542Z,7.70
2023-05-17T15:15:58.020Z,8.68
2023-05-17T15:18:26.053Z,8.20
2023-05-17T15:20:53.506Z,9.65
2023-05-17T15:23:21.038Z,9.13
2023-05-17T15:25:48.488Z,8.75
2023-05-17T15:28:16.047Z,9.07
2023-05-17T15:30:43.471Z,9.60
2023-05-17T15:33:11.386Z,8.82
2023-05-17T15:35:42.241Z,9.63
2023-05-17T15:38:09.764Z,9.80
2023-05-17T15:40:37.720Z,9.98
2023-05-17T15:43:05.254Z,10.48
2023-05-17T15:45:33.154Z,10.63
2023-05-17T15:48:02.038Z,11.07
2023-05-17T15:50:29.679Z,10.73
2023-05-17T15:52:57.104Z,11.75
2023-05-17T15:55:24.697Z,12.15
2023-05-17T15:57:52.251Z,13.63
2023-05-17T16:00:20.288Z,13.68
2023-05-17T16:02:47.872Z,14.35
2023-05-17T16:05:15.736Z,14.45
2023-05-17T16:07:43.182Z,13.98
2023-05-17T16:10:10.812Z,15.20
2023-05-17T16:12:38.483Z,14.82
2023-05-17T16:15:06.223Z,15.43
2023-05-17T16:17:33.904Z,13.98
2023-05-17T16:20:01.628Z,14.10
2023-05-17T16:22:29.214Z,13.07
2023-05-17T16:24:57.177Z,13.55
2023-05-17T16:27:24.709Z,13.95
2023-05-17T16:29:52.166Z,13.73
2023-05-17T16:32:19.659Z,13.60
2023-05-17T16:34:47.331Z,14.57
2023-05-17T16:37:15.068Z,15.00
2023-05-17T16:39:42.593Z,15.45
2023-05-17T16:42:10.091Z,16.42
2023-05-17T16:44:37.729Z,16.60
2023-05-17T16:47:05.343Z,17.33
2023-05-17T16:49:32.885Z,17.60
2023-05-17T16:52:00.327Z,18.85
2023-05-17T16:54:28.526Z,19.08
2023-05-17T16:56:56.190Z,19.20
2023-05-17T16:59:24.976Z,20.27
2023-05-17T17:01:52.434Z,17.08
2023-05-17T17:04:20.123Z,18.33
2023-05-17T17:06:47.643Z,17.25
2023-05-17T17:09:16.023Z,16.15
2023-05-17T17:11:43.599Z,17.55
2023-05-17T17:14:11.143Z,18.08
2023-05-17T17:16:39.094Z,17.88
2023-05-17T17:19:06.609Z,18.90
2023-05-17T17:21:36.599Z,17.98
2023-05-17T17:24:05.660Z,18.88
2023-05-17T17:26:35.290Z,17.65
2023-05-17T17:29:04.211Z,16.92
2023-05-17T17:31:32.190Z,16.83
2023-05-17T17:33:59.766Z,17.42
2023-05-17T17:36:27.301Z,17.67
2023-05-17T17:38:54.796Z,17.83
2023-05-17T17:41:23.240Z,17.30
2023-05-17T17:43:50.725Z,17.65
2023-05-17T17:46:18.123Z,17.92
2023-05-17T17:48:45.864Z,17.85
2023-05-17T17:51:13.424Z,17.10
2023-05-17T17:53:41.960Z,16.95
2023-05-17T17:56:11.905Z,15.27
2023-05-17T17:58:39.594Z,14.88
2023-05-17T18:01:07.063Z,13.70
2023-05-17T18:03:35.608Z,14.52
2023-05-17T18:06:04.623Z,14.52
2023-05-17T18:08:32.147Z,15.52
2023-05-17T18:10:59.806Z,14.75
2023-05-17T18:13:27.332Z,12.88
2023-05-17T18:15:54.812Z,13.07
2023-05-17T18:18:22.248Z,16.90
2023-05-17T18:20:49.799Z,16.70
2023-05-17T18:23:17.229Z,16.83
2023-05-17T18:25:46.814Z,17.27
2023-05-17T18:28:14.223Z,17.63
2023-05-17T18:30:42.240Z,19.83
2023-05-17T18:33:09.790Z,18.35
2023-05-17T18:35:37.278Z,20.02
2023-05-17T18:38:04.757Z,20.42
2023-05-17T18:40:32.192Z,23.42
2023-05-17T18:42:59.966Z,22.25
2023-05-17T18:45:27.413Z,21.52
2023-05-17T18:47:54.963Z,20.88
2023-05-17T18:50:22.406Z,17.42
2023-05-17T18:52:50.112Z,16.75
2023-05-17T18:55:17.871Z,18.17
2023-05-17T18:57:45.376Z,17.67
2023-05-17T19:00:13.126Z,15.82
2023-05-17T19:02:40.730Z,15.20
2023-05-17T19:05:08.561Z,14.85
2023-05-17T19:07:36.114Z,14.63
2023-05-17T19:10:04.512Z,14.65
2023-05-17T19:12:32.017Z,13.82
2023-05-17T19:14:59.454Z,13.82
2023-05-17T19:17:27.204Z,13.65
2023-05-17T19:19:54.833Z,14.48
2023-05-17T19:22:22.275Z,13.05
2023-05-17T19:24:50.863Z,12.60
2023-05-17T19:27:19.917Z,12.23
2023-05-17T19:29:47.807Z,11.43
2023-05-17T19:32:15.407Z,11.40
2023-05-17T19:34:42.880Z,10.63
2023-05-17T19:37:10.523Z,10.55
2023-05-17T19:39:38.018Z,9.80
2023-05-17T19:42:06.383Z,8.95
2023-05-17T19:44:33.875Z,9.65
2023-05-17T19:47:01.716Z,9.65
2023-05-17T19:49:29.250Z,8.98
2023-05-17T19:52:00.599Z,9.05
2023-05-17T19:54:29.256Z,9.68
2023-05-17T19:56:57.098Z,9.02
2023-05-17T19:59:24.649Z,9.65
2023-05-17T20:01:52.186Z,9.27
2023-05-17T20:04:19.700Z,9.68
2023-05-17T20:06:47.120Z,11.13
2023-05-17T20:09:14.849Z,10.48
2023-05-17T20:11:42.889Z,10.13
2023-05-17T20:14:12.222Z,10.85
2023-05-17T20:16:40.193Z,11.43
2023-05-17T20:19:07.909Z,10.82
2023-05-17T20:21:36.274Z,10.98
2023-05-17T20:24:06.664Z,10.25
2023-05-17T20:26:37.849Z,10.38
2023-05-17T20:29:07.269Z,10.80
2023-05-17T20:31:35.807Z,9.85
2023-05-17T20:34:03.564Z,9.90
2023-05-17T20:36:31.586Z,10.05
2023-05-17T20:38:59.108Z,9.52
2023-05-17T20:41:26.634Z,10.02
2023-05-17T20:43:54.734Z,9.43
2023-05-17T20:46:23.106Z,9.73
2023-05-17T20:48:50.754Z,9.73
2023-05-17T20:51:19.619Z,9.60
2023-05-17T20:53:47.139Z,9.68
2023-05-17T20:56:14.777Z,9.85
2023-05-17T20:58:42.174Z,9.90
2023-05-17T21:01:10.132Z,12.20
2023-05-17T21:03:39.809Z,11.32
2023-05-17T21:06:08.264Z,11.77
2023-05-17T21:08:36.386Z,12.20
2023-05-17T21:11:19.116Z,10.52
2023-05-17T21:13:46.596Z,10.15
2023-05-17T21:16:14.250Z,11.00
2023-05-17T21:18:41.981Z,11.85
2023-05-17T21:21:09.415Z,11.77
2023-05-17T21:23:36.943Z,10.77
2023-05-17T21:26:07.574Z,11.65
2023-05-17T21:28:35.248Z,11.07
2023-05-17T21:31:02.716Z,10.68
2023-05-17T21:33:31.885Z,11.27
2023-05-17T21:35:59.352Z,10.95
2023-05-17T21:38:26.794Z,11.18
2023-05-17T21:40:55.532Z,10.35
2023-05-17T21:43:23.049Z,11.40
2023-05-17T21:45:50.448Z,11.20
2023-05-17T21:48:17.990Z,10.45
2023-05-17T21:50:45.896Z,9.65
2023-05-17T21:53:13.866Z,9.57
2023-05-17T21:55:56.971Z,10.00
2023-05-17T21:58:28.997Z,10.40
2023-05-17T22:00:56.514Z,10.55
2023-05-17T22:03:24.276Z,10.57
2023-05-17T22:05:52.677Z,11.23
2023-05-17T22:08:20.229Z,10.70
2023-05-17T22:10:47.730Z,10.55
2023-05-17T22:13:18.103Z,10.75
2023-05-17T22:15:45.750Z,10.90
2023-05-17T22:18:13.943Z,10.45
2023-05-17T22:20:41.659Z,11.32
2023-05-17T22:23:09.120Z,11.10
2023-05-17T22:25:36.635Z,10.80
2023-05-17T22:28:04.220Z,10.85
2023-05-17T22:30:32.169Z,10.55
2023-05-17T22:33:01.044Z,11.90
2023-05-17T22:35:28.695Z,11.02
2023-05-17T22:37:56.136Z,12.07
2023-05-17T22:40:23.630Z,12.35
2023-05-17T22:42:51.950Z,12.27
2023-05-17T22:45:19.548Z,13.07
2023-05-17T22:47:47.063Z,14.00
2023-05-17T22:50:15.613Z,13.05
2023-05-17T22:52:46.140Z,14.00
2023-05-17T22:55:13.766Z,14.13
2023-05-17T22:57:41.186Z,14.32
2023-05-17T23:00:11.049Z,13.05
2023-05-17T23:02:38.596Z,12.23
2023-05-17T23:05:06.285Z,13.23
2023-05-17T23:07:37.161Z,14.45
2023-05-17T23:10:05.540Z,15.05
2023-05-17T23:12:33.292Z,15.40
2023-05-17T23:15:00.738Z,15.38
2023-05-17T23:17:32.492Z,16.42
2023-05-17T23:20:13.088Z,16.42
2023-05-17T23:22:40.808Z,17.85
2023-05-17T23:25:08.395Z,15.98
2023-05-17T23:27:36.077Z,15.00
2023-05-17T23:30:04.674Z,13.63
2023-05-17T23:32:32.748Z,12.60
2023-05-17T23:35:04.260Z,12.90
2023-05-17T23:37:32.799Z,13.27
2023-05-17T23:40:00.683Z,13.95
2023-05-17T23:42:29.584Z,13.40
2023-05-17T23:44:57.099Z,12.23
2023-05-17T23:47:24.592Z,12.45
2023-05-17T23:49:52.845Z,11.70
2023-05-17T23:52:20.711Z,11.57
2023-05-17T23:54:48.515Z,11.73
2023-05-17T23:57:15.930Z,11.43
2023-05-17T23:59:43.332Z,11.82
